Home > Products > Valid Products > TAF

000
FTUS42 KTAE 092338
TAFVLD
TAF
KVLD 092338Z 1000/1024 28005KT P6SM SKC
     FM101500 30010G15KT P6SM SKC=



000
FTUS42 KTAE 092338
TAFABY
TAF
KABY 092338Z 1000/1024 29010KT P6SM SKC
     FM101500 29015G25KT P6SM SKC=



000
FTUS42 KTAE 092338
TAFTLH
TAF
KTLH 092338Z 1000/1024 29010KT P6SM SKC
     FM101500 30015G20KT P6SM SKC=



000
FTUS42 KTAE 092338
TAFDHN
TAF
KDHN 092338Z 1000/1024 29010KT P6SM SKC
     FM101500 29015G20KT P6SM SKC=



000
FTUS42 KTAE 091733
TAFABY
TAF
KABY 091733Z 0918/1018 27015G30KT P6SM SCT060
     FM100000 28010KT P6SM SCT040
     FM101500 30010G15KT P6SM SKC=



000
FTUS42 KTAE 091733
TAFVLD
TAF
KVLD 091733Z 0918/1018 27015G30KT P6SM SKC
     FM092300 28008KT P6SM SKC
     FM101500 32010G15KT P6SM SKC=



000
FTUS42 KTAE 091733
TAFDHN
TAF
KDHN 091733Z 0918/1018 28015G30KT P6SM SCT050
     FM100000 29010KT P6SM SCT050
     FM101500 31010G15KT P6SM SKC=



000
FTUS42 KTAE 091733
TAFDHN
TAF
KDHN 091733Z 0918/1018 28015G30KT P6SM SCT050
     FM100000 29010KT P6SM SCT050
     FM101500 31010G15KT P6SM SKC=



000
FTUS42 KTAE 091733
TAFABY
TAF
KABY 091733Z 0918/1018 27015G30KT P6SM SCT060
     FM100000 28010KT P6SM SCT040
     FM101500 30010G15KT P6SM SKC=



000
FTUS42 KTAE 091733
TAFTLH
TAF
KTLH 091733Z 0918/1018 27015G30KT P6SM FEW050
     FM092300 29010KT P6SM SKC
     FM101500 29010G15KT P6SM SKC=



000
FTUS42 KTAE 091733
TAFVLD
TAF
KVLD 091733Z 0918/1018 27015G30KT P6SM SKC
     FM092300 28008KT P6SM SKC
     FM101500 32010G15KT P6SM SKC=



000
FTUS42 KTAE 091733
TAFTLH
TAF
KTLH 091733Z 0918/1018 27015G30KT P6SM FEW050
     FM092300 29010KT P6SM SKC
     FM101500 29010G15KT P6SM SKC=



000
FTUS42 KTAE 091120
TAFTLH
TAF
KTLH 091120Z 0912/1012 28012KT P6SM SKC
     FM091500 28016G26KT P6SM FEW250
     FM092300 29010KT P6SM SKC=



000
FTUS42 KTAE 091120
TAFABY
TAF
KABY 091120Z 0912/1012 26012G16KT P6SM SCT050
     FM091500 28016G26KT P6SM BKN050
     FM100000 28010KT P6SM SCT040=



000
FTUS42 KTAE 091120
TAFVLD
TAF
KVLD 091120Z 0912/1012 27010KT P6SM SKC
     FM091500 27014G22KT P6SM FEW050 SCT250
     FM092300 28008KT P6SM SCT050=



000
FTUS42 KTAE 091120
TAFABY
TAF
KABY 091120Z 0912/1012 26012G16KT P6SM SCT050
     FM091500 28016G26KT P6SM BKN050
     FM100000 28010KT P6SM SCT040=



000
FTUS42 KTAE 091120
TAFDHN
TAF
KDHN 091120Z 0912/1012 27012G16KT P6SM SCT050
     FM091500 29016G26KT P6SM BKN050
     FM100000 29010KT P6SM SCT050=



000
FTUS42 KTAE 091120
TAFVLD
TAF
KVLD 091120Z 0912/1012 27010KT P6SM SKC
     FM091500 27014G22KT P6SM FEW050 SCT250
     FM092300 28008KT P6SM SCT050=



000
FTUS42 KTAE 090903 AAA
TAFABY
TAF AMD
KABY 090903Z 0909/1006 28008KT P6SM SCT050
     FM091500 28016G26KT P6SM BKN050
     FM100000 28010KT P6SM SCT040=



000
FTUS42 KTAE 090903 AAA
TAFDHN
TAF AMD
KDHN 090903Z 0909/1006 28010KT P6SM SCT050
     FM091500 29016G26KT P6SM BKN050
     FM100000 29010KT P6SM SCT050=



000
FTUS42 KTAE 090903 AAA
TAFABY
TAF AMD
KABY 090903Z 0909/1006 28008KT P6SM SCT050
     FM091500 28016G26KT P6SM BKN050
     FM100000 28010KT P6SM SCT040=



000
FTUS42 KTAE 090903 AAA
TAFDHN
TAF AMD
KDHN 090903Z 0909/1006 28010KT P6SM SCT050
     FM091500 29016G26KT P6SM BKN050
     FM100000 29010KT P6SM SCT050=



000
FTUS42 KTAE 090902 AAA
TAFTLH
TAF AMD
KTLH 090902Z 0909/1006 28008KT P6SM SKC
     FM091500 28016G26KT P6SM FEW250
     FM092300 29010KT P6SM SKC=



000
FTUS42 KTAE 090902 AAA
TAFTLH
TAF AMD
KTLH 090902Z 0909/1006 28008KT P6SM SKC
     FM091500 28016G26KT P6SM FEW250
     FM092300 29010KT P6SM SKC=



000
FTUS42 KTAE 090526
TAFTLH
TAF
KTLH 090526Z 0906/1006 30010G18KT P6SM SKC
     FM091500 28016G26KT P6SM FEW250
     FM092300 29010KT P6SM SKC=



000
FTUS42 KTAE 090526
TAFABY
TAF
KABY 090526Z 0906/1006 28010G16KT P6SM SCT050
     FM091500 28016G26KT P6SM BKN050
     FM100000 28010KT P6SM SCT040=



000
FTUS42 KTAE 090526
TAFDHN
TAF
KDHN 090526Z 0906/1006 29011G18KT P6SM SCT050
     FM091500 29016G26KT P6SM BKN050
     FM100000 29010KT P6SM SCT050=



000
FTUS42 KTAE 090526
TAFVLD
TAF
KVLD 090526Z 0906/1006 27008KT P6SM OVC100
     FM090700 27008KT P6SM SKC
     FM091500 27012G20KT P6SM FEW050 SCT250
     FM092300 28008KT P6SM SCT050=



000
FTUS42 KTAE 082320
TAFTLH
TAF
KTLH 082320Z 0900/0924 28014G25KT P6SM FEW070
     FM090300 29010G18KT P6SM SKC
     FM091500 28016G26KT P6SM FEW250=



000
FTUS42 KTAE 082320
TAFVLD
TAF
KVLD 082320Z 0900/0924 27008KT P6SM SCT060 BKN100
     FM091500 28012G20KT P6SM SCT250=



000
FTUS42 KTAE 082320
TAFABY
TAF
KABY 082320Z 0900/0924 29011G22KT P6SM FEW100
     FM090300 29010G18KT P6SM SKC
     FM091500 28018G25KT P6SM SCT250=



000
FTUS42 KTAE 082320
TAFDHN
TAF
KDHN 082320Z 0900/0924 29014G23KT P6SM FEW070
     FM090300 27011G18KT P6SM SKC
     FM091500 29018G26KT P6SM SCT250=



000
FTUS42 KTAE 081720
TAFDHN
TAF
KDHN 081720Z 0818/0918 27015G30KT P6SM SCT040
     FM090000 29010G16KT P6SM BKN040
     FM090300 29010KT P6SM FEW040
     FM091500 29015G25KT P6SM SCT100=



000
FTUS42 KTAE 081720
TAFTLH
TAF
KTLH 081720Z 0818/0918 27015G30KT P6SM FEW250
     FM090000 29010G16KT P6SM SCT050
     FM090300 29009KT P6SM SKC
     FM091500 29013G23KT P6SM SKC=



000
FTUS42 KTAE 081720
TAFVLD
TAF
KVLD 081720Z 0818/0918 23011KT P6SM SKC
     FM082000 27015G25KT P6SM SCT050
     FM090000 28008KT P6SM BKN050
     FM091500 29011G16KT P6SM SCT250=



000
FTUS42 KTAE 081720
TAFABY
TAF
KABY 081720Z 0818/0918 26015G30KT P6SM FEW040
     FM090000 28010G16KT P6SM BKN040
     FM090300 29010KT P6SM BKN040
     FM091500 28015G25KT P6SM SCT050=



000
FTUS42 KTAE 081122
TAFABY
TAF
KABY 081122Z 0812/0912 25008KT P6SM SKC
     FM081600 26015G25KT P6SM BKN050
     FM090000 28010G16KT P6SM BKN040=



000
FTUS42 KTAE 081122
TAFDHN
TAF
KDHN 081122Z 0812/0912 25010KT P6SM SKC
     FM081500 27015G25KT P6SM BKN050
     FM090000 29010G16KT P6SM BKN040=



000
FTUS42 KTAE 081122
TAFTLH
TAF
KTLH 081122Z 0812/0912 26008KT P6SM SKC
     FM081600 26015G25KT P6SM BKN050
     FM090000 29010G16KT P6SM SCT050=



000
FTUS42 KTAE 081122
TAFVLD
TAF
KVLD 081122Z 0812/0912 24008KT P6SM SKC
     FM081600 24012G18KT P6SM SCT050
     FM081800 24014G22KT 6SM -SHRA BKN050
     FM090000 28008KT P6SM BKN050=



000
FTUS42 KTAE 080530
TAFVLD
TAF
KVLD 080530Z 0806/0906 30005KT P6SM SKC
     FM081600 24010G18KT P6SM SCT050
     FM081800 24014G22KT 6SM -SHRA BKN050
     FM090000 28010KT P6SM BKN050=



000
FTUS42 KTAE 080530
TAFABY
TAF
KABY 080530Z 0806/0906 25006KT P6SM SKC
     FM081500 26015G25KT P6SM BKN050
     FM090000 28010G16KT P6SM BKN040=



000
FTUS42 KTAE 080530
TAFDHN
TAF
KDHN 080530Z 0806/0906 24005KT P6SM SKC
     FM081400 27015G25KT P6SM BKN050
     FM090000 29010G16KT P6SM BKN050=



000
FTUS42 KTAE 080530
TAFTLH
TAF
KTLH 080530Z 0806/0906 26005KT P6SM SKC
     FM081600 26015G25KT P6SM BKN050
     FM090000 29010G16KT P6SM SCT050=



000
FTUS42 KTAE 080530
TAFDHN
TAF
KDHN 080530Z 0806/0906 24005KT P6SM SKC
     FM081400 27015G25KT P6SM BKN050
     FM090000 29010G16KT P6SM BKN050=



000
FTUS42 KTAE 080530
TAFABY
TAF
KABY 080530Z 0806/0906 25006KT P6SM SKC
     FM081500 26015G25KT P6SM BKN050
     FM090000 28010G16KT P6SM BKN040=



000
FTUS42 KTAE 080530
TAFVLD
TAF
KVLD 080530Z 0806/0906 30005KT P6SM SKC
     FM081600 24010G18KT P6SM SCT050
     FM081800 24014G22KT 6SM -SHRA BKN050
     FM090000 28010KT P6SM BKN050=



000
FTUS42 KTAE 080530
TAFTLH
TAF
KTLH 080530Z 0806/0906 26005KT P6SM SKC
     FM081600 26015G25KT P6SM BKN050
     FM090000 29010G16KT P6SM SCT050=



000
FTUS42 KTAE 072320
TAFABY
TAF
KABY 072320Z 0800/0824 30005KT P6SM SKC
     FM081600 27017G27KT P6SM BKN050=



000
FTUS42 KTAE 072320
TAFDHN
TAF
KDHN 072320Z 0800/0824 30005KT P6SM SKC
     FM081600 27017G27KT P6SM BKN050=



000
FTUS42 KTAE 072320
TAFVLD
TAF
KVLD 072320Z 0800/0824 30005KT P6SM SKC
     FM081600 24010G25KT P6SM BKN050=



000
FTUS42 KTAE 072320
TAFTLH
TAF
KTLH 072320Z 0800/0824 30005KT P6SM SKC
     FM081600 26017G30KT P6SM BKN050=



000
FTUS42 KTAE 071735
TAFTLH
TAF
KTLH 071735Z 0718/0818 34012G16KT P6SM SKC
     FM080100 VRB03KT P6SM SKC
     FM081500 27012G25KT P6SM BKN250=



000
FTUS42 KTAE 071735
TAFDHN
TAF
KDHN 071735Z 0718/0818 36011G16KT P6SM SKC
     FM072300 29005KT P6SM SKC
     FM081500 27012G22KT P6SM BKN250=



000
FTUS42 KTAE 071735
TAFABY
TAF
KABY 071735Z 0718/0818 34011G20KT P6SM SKC
     FM072300 27004KT P6SM SKC
     FM081500 25012G22KT P6SM SCT250=



000
FTUS42 KTAE 071735
TAFVLD
TAF
KVLD 071735Z 0718/0818 36010G16KT P6SM SKC
     FM080100 00000KT P6SM SKC
     FM081500 24010G20KT P6SM SCT250=



000
FTUS42 KTAE 071127
TAFABY
TAF
KABY 071127Z 0712/0812 34006KT P6SM SKC
     FM071400 31010G16KT P6SM SKC
     FM072300 28005KT P6SM SKC=



000
FTUS42 KTAE 071127
TAFVLD
TAF
KVLD 071127Z 0712/0812 34005KT P6SM BKN250
     FM071400 34010KT P6SM SKC
     FM072300 30004KT P6SM SKC=



000
FTUS42 KTAE 071127
TAFDHN
TAF
KDHN 071127Z 0712/0812 33008KT P6SM SKC
     FM071300 33010G16KT P6SM SKC
     FM072300 29005KT P6SM SKC=



000
FTUS42 KTAE 071127
TAFTLH
TAF
KTLH 071127Z 0712/0812 33006KT P6SM FEW250
     FM071400 32010G16KT P6SM SKC
     FM080000 30004KT P6SM SKC=



000
FTUS42 KTAE 070714 AAA
TAFVLD
TAF AMD
KVLD 070714Z 0707/0806 36006KT P6SM SCT030 BKN040
     FM071100 34006KT P6SM BKN150
     FM071400 34010G15KT P6SM SKC
     FM072300 30005KT P6SM SKC=



000
FTUS42 KTAE 070543
TAFDHN
TAF
KDHN 070543Z 0706/0806 VRB05KT P6SM FEW200
     FM071300 33010G16KT P6SM SKC
     FM072300 29004KT P6SM SKC=



000
FTUS42 KTAE 070543
TAFVLD
TAF
KVLD 070543Z 0706/0806 36006KT P6SM BKN025 OVC060
     FM071100 34006KT P6SM BKN150
     FM071400 34010G15KT P6SM SKC
     FM072300 30005KT P6SM SKC=



000
FTUS42 KTAE 070543
TAFTLH
TAF
KTLH 070543Z 0706/0806 33006KT P6SM BKN120
     FM071400 32010G18KT P6SM SKC
     FM080000 31004KT P6SM SKC=



000
FTUS42 KTAE 070543
TAFDHN
TAF
KDHN 070543Z 0706/0806 VRB05KT P6SM FEW200
     FM071300 33010G16KT P6SM SKC
     FM072300 29004KT P6SM SKC=



000
FTUS42 KTAE 070543
TAFABY
TAF
KABY 070543Z 0706/0806 34004KT P6SM SCT200
     FM071400 31010G18KT P6SM SKC
     FM072300 30005KT P6SM SKC=



000
FTUS42 KTAE 070543
TAFTLH
TAF
KTLH 070543Z 0706/0806 33006KT P6SM BKN120
     FM071400 32010G18KT P6SM SKC
     FM080000 31004KT P6SM SKC=



000
FTUS42 KTAE 070543
TAFABY
TAF
KABY 070543Z 0706/0806 34004KT P6SM SCT200
     FM071400 31010G18KT P6SM SKC
     FM072300 30005KT P6SM SKC=



000
FTUS42 KTAE 070543
TAFVLD
TAF
KVLD 070543Z 0706/0806 36006KT P6SM BKN025 OVC060
     FM071100 34006KT P6SM BKN150
     FM071400 34010G15KT P6SM SKC
     FM072300 30005KT P6SM SKC=



    US Dept of Commerce
    National Oceanic and Atmospheric Administration
    National Weather Service
    1325 East West Highway
    Silver Spring, MD 20910
    Page Author: NWS Internet Services Team
Disclaimer
Information Quality
Credits
Glossary
Privacy Policy
Freedom of Information Act (FOIA)
About Us
Career Opportunities